Airfield :
LOGIN :

Register | Disclaimer

   EN    FR    IT 

 










Legend :    VFR   Marginal VFR   IFR   Intensive IFR   Very Intensive IFR
Visi :
Ceiling :
>= 8 km
>= 3000ft
5 to 8 km
1000 to 3000 ft
1500m to 5 km
500 to 1000 ft
800 to 1500m
200 to 500 ft
< 800m
< 200 ft
Symbols :   Thunderstorms  Fog  Heavy snow  Heavy precipitations  Wind > 20 kt
SIGMETs :     Misc.  Thunderstorms  Icing  Turbulence  Mountain Waves  Volcanic Ashes







- Airport Elevation : 218 ft
- IATA code : LBG
- Download approach charts


LFPB - Paris / Le Bourget

CURRENT METAR :
  • 221030Z AUTO 18007KT 1300 1200 R27/1600D R09/1700N R07/1600D -SN BR OVC009 00/M01 Q1007 BECMG 6000 NSW BKN012

EXPIRED METARs :
  • 221000Z AUTO 17007KT 1100 0800 R27/1400U R09/1500U R07/1200D -SN BCFG BKN007/// OVC012/// ///TCU M00/M01 Q1007 BECMG 3000 -SN BKN010
  • 220930Z AUTO 16008KT 1000 0900 R27/1500D R09/1400D R07/1300D -SN BCFG OVC006/// ///TCU M01/M02 Q1008 BECMG 3000 -SN BKN010
  • 220900Z AUTO 17008KT 1500 1300 R27/1900U R09/P2000 R07/1900U -SN BR OVC008/// ///TCU M01/M02 Q1008 BECMG 3000 -SN BKN010
  • 220830Z AUTO 16009KT 2700 -SN BR BKN010/// BKN017/// BKN023/// ///TCU M01/M03 Q1008 BECMG 3000 -SN BKN010
  • 220800Z AUTO 17011KT 4800 BR SCT011/// BKN021/// BKN045/// ///TCU M01/M03 Q1009 TEMPO 0900 SN BKN005

TAF AMD TAF LFPB
Valid from the 22 at 07:00 until the 23 at 06:00 UTC


220747Z 2207/2306 18010KT 3000 -SN BKN010
PROB40
TEMPO 2208/2210 0900 SN BKN005
BECMG 2212/2214 6000 NSW BKN012
BECMG 2216/2218 BKN008
PROB40
TEMPO 2221/2306 1500 -SHSN BKN006 SCT012TCU
ATIS : +33 1 48 62 43 92
No reported NOTAMs for that airfield.



MET'MAP, your aeronautical weather chart ! - Copyright ORBIFLY December 2007 - Disclaimer

ORBIFLY MET'MAP TEAM :

Programming & Development : Alexandra Zaïnal
Concept & Development : Baudouin d'Aumeries
Co-Development & Prog : Marc-Olivier Méhu
Technical & hardware support : Manuel Goepfert

Contact : metmap@orbifly.com




SOURCES & CREDITS :

   NOAA